Time;durP1;ratioP1;P1;durP2;ratioP2;P2;SDS_P1;SDS_P2;PMS_P1;PMS_P2;Temp;Humidity;BMP_temperature;BMP_pressure;BME280_temperature;BME280_humidity;BME280_pressure;Samples;Min_cycle;Max_cycle;Signal;HPM_P1;HPM_P2
2023/01/21 00:02:04;;;;;;;48.17;32.40;;;1.10;89.60;;;;;;5060309;28;20041;-72
2023/01/21 00:04:33;;;;;;;49.42;32.20;;;1.10;89.70;;;;;;5062520;28;20021;-72
2023/01/21 00:06:59;;;;;;;49.47;32.72;;;1.10;89.60;;;;;;5056363;28;20037;-72
2023/01/21 00:09:24;;;;;;;51.92;33.97;;;1.10;89.70;;;;;;5075756;28;20395;-71
2023/01/21 00:11:50;;;;;;;49.10;32.55;;;1.10;89.80;;;;;;5053285;28;20032;-72
2023/01/21 00:14:15;;;;;;;48.60;32.15;;;1.10;89.80;;;;;;5048071;28;20036;-72
2023/01/21 00:16:41;;;;;;;53.40;34.65;;;1.10;89.80;;;;;;5069257;28;20115;-72
2023/01/21 00:19:07;;;;;;;50.72;32.90;;;1.00;89.90;;;;;;5058618;28;20146;-73
2023/01/21 00:21:32;;;;;;;48.30;32.85;;;1.00;89.90;;;;;;5074709;28;20122;-72
2023/01/21 00:23:58;;;;;;;54.55;34.00;;;1.00;90.00;;;;;;5065778;28;20586;-72
2023/01/21 00:26:24;;;;;;;52.50;33.55;;;0.90;89.90;;;;;;5070508;28;20035;-72
2023/01/21 00:28:49;;;;;;;54.22;33.60;;;0.90;90.20;;;;;;5068230;28;20342;-72
2023/01/21 00:31:15;;;;;;;50.45;32.78;;;0.90;90.10;;;;;;5069864;28;20364;-72
2023/01/21 00:33:40;;;;;;;55.25;34.42;;;0.90;90.10;;;;;;5062974;28;20025;-72
2023/01/21 00:36:11;;;;;;;56.53;35.30;;;0.80;90.10;;;;;;5073705;28;20080;-72
2023/01/21 00:38:37;;;;;;;51.17;33.88;;;0.80;90.20;;;;;;5072941;28;20017;-72
2023/01/21 00:41:12;;;;;;;51.95;33.35;;;0.80;90.30;;;;;;5072568;28;20040;-72
2023/01/21 00:43:38;;;;;;;52.83;34.88;;;0.70;90.30;;;;;;5068572;28;20026;-72
2023/01/21 00:46:05;;;;;;;58.05;37.42;;;0.70;90.40;;;;;;5070574;28;20025;-72
2023/01/21 00:48:31;;;;;;;53.35;33.58;;;0.70;90.40;;;;;;5071674;28;20052;-72
2023/01/21 00:50:59;;;;;;;59.47;35.10;;;0.70;90.60;;;;;;5070405;28;20128;-72
2023/01/21 00:53:26;;;;;;;56.42;35.05;;;0.70;90.50;;;;;;5070299;28;20081;-72
2023/01/21 00:55:52;;;;;;;56.85;35.95;;;0.70;90.50;;;;;;5067840;28;20033;-72
2023/01/21 00:58:17;;;;;;;62.45;36.63;;;0.70;90.50;;;;;;5063556;28;20017;-72
2023/01/21 01:00:43;;;;;;;58.72;35.35;;;0.70;90.50;;;;;;5063220;28;20059;-72
2023/01/21 01:03:09;;;;;;;57.85;36.05;;;0.70;90.50;;;;;;5064842;28;20032;-72
2023/01/21 01:05:36;;;;;;;58.03;35.60;;;0.70;90.40;;;;;;5046497;28;20558;-72
2023/01/21 01:08:01;;;;;;;54.85;35.67;;;0.70;90.30;;;;;;5064877;28;20016;-72
2023/01/21 01:10:27;;;;;;;55.95;35.83;;;0.70;90.40;;;;;;5062660;28;20055;-72
2023/01/21 01:12:53;;;;;;;56.40;36.20;;;0.70;90.40;;;;;;5067882;28;20377;-72
2023/01/21 01:15:18;;;;;;;60.22;35.72;;;0.60;90.40;;;;;;5067005;28;20039;-73
2023/01/21 01:17:44;;;;;;;65.47;36.83;;;0.60;90.50;;;;;;5066956;28;20040;-72
2023/01/21 01:20:10;;;;;;;62.38;37.33;;;0.60;90.50;;;;;;5070042;28;20025;-74
2023/01/21 01:22:36;;;;;;;59.80;37.28;;;0.60;90.50;;;;;;5078747;28;20078;-73
2023/01/21 01:25:02;;;;;;;62.50;36.38;;;0.60;90.50;;;;;;5066135;28;20485;-72
2023/01/21 01:27:29;;;;;;;59.20;35.65;;;0.60;90.60;;;;;;5064047;28;20127;-73
2023/01/21 01:29:54;;;;;;;65.57;37.55;;;0.60;90.50;;;;;;5052936;28;20045;-73
2023/01/21 01:32:20;;;;;;;66.43;38.42;;;0.60;90.50;;;;;;5060855;28;20071;-72
2023/01/21 01:34:46;;;;;;;62.22;37.00;;;0.60;90.50;;;;;;5056371;28;20028;-72
2023/01/21 01:37:11;;;;;;;63.72;37.20;;;0.50;90.50;;;;;;5063947;28;20515;-73
2023/01/21 01:39:37;;;;;;;60.95;35.83;;;0.50;90.50;;;;;;5041573;28;20173;-72
2023/01/21 01:42:03;;;;;;;65.05;38.97;;;0.50;90.60;;;;;;5060808;28;20590;-73
2023/01/21 01:45:02;;;;;;;65.35;38.35;;;0.50;90.80;;;;;;5065110;28;20107;-72
2023/01/21 01:47:38;;;;;;;65.05;38.60;;;0.50;90.70;;;;;;5069396;28;20090;-73
2023/01/21 01:50:09;;;;;;;65.95;37.38;;;0.50;90.70;;;;;;5075347;28;20039;-73
2023/01/21 01:52:35;;;;;;;65.93;38.75;;;0.50;90.70;;;;;;5064596;28;20595;-72
2023/01/21 01:55:03;;;;;;;66.35;37.88;;;0.50;90.70;;;;;;5075370;28;20059;-73
2023/01/21 01:57:37;;;;;;;66.45;39.50;;;0.40;90.70;;;;;;5065534;28;20441;-73
2023/01/21 02:00:05;;;;;;;65.78;38.58;;;0.40;90.80;;;;;;5066071;28;20024;-73
2023/01/21 02:02:33;;;;;;;65.97;38.20;;;0.30;90.70;;;;;;5047869;28;20112;-73
2023/01/21 02:05:03;;;;;;;63.42;36.40;;;0.30;90.90;;;;;;5054949;28;20030;-73
2023/01/21 02:07:42;;;;;;;63.30;37.63;;;0.20;90.90;;;;;;5063583;28;20547;-73
2023/01/21 02:10:10;;;;;;;65.35;38.05;;;0.30;91.00;;;;;;5046828;28;20024;-73
2023/01/21 02:12:38;;;;;;;67.85;39.88;;;0.30;91.00;;;;;;5063721;28;20053;-72
2023/01/21 02:15:05;;;;;;;72.93;41.30;;;0.20;91.10;;;;;;5064848;28;20036;-73
2023/01/21 02:17:30;;;;;;;72.72;39.42;;;0.30;91.20;;;;;;5048817;28;20640;-72
2023/01/21 02:20:21;;;;;;;71.30;40.53;;;0.20;91.20;;;;;;5063696;28;20121;-73
2023/01/21 02:23:12;;;;;;;74.68;40.65;;;0.20;91.30;;;;;;5074464;28;20093;-73
2023/01/21 02:26:11;;;;;;;70.85;40.08;;;0.20;91.30;;;;;;5071620;28;20043;-73
2023/01/21 02:28:52;;;;;;;73.90;40.03;;;0.20;91.40;;;;;;5068897;28;20029;-73
2023/01/21 02:31:32;;;;;;;72.50;39.95;;;0.10;91.30;;;;;;5060817;28;20846;-73
2023/01/21 02:34:22;;;;;;;72.95;40.05;;;0.10;91.30;;;;;;5061098;28;20020;-73
2023/01/21 02:37:06;;;;;;;79.22;41.83;;;0.10;91.30;;;;;;5057838;28;20055;-72
2023/01/21 02:39:39;;;;;;;74.82;39.60;;;0.10;91.50;;;;;;5067104;28;20490;-72
2023/01/21 02:42:26;;;;;;;70.25;38.13;;;0.10;91.40;;;;;;5043230;28;20089;-72
2023/01/21 02:45:15;;;;;;;73.72;41.17;;;0.10;91.50;;;;;;5067815;28;20079;-73
2023/01/21 02:48:05;;;;;;;74.90;40.97;;;0.00;91.50;;;;;;5031114;28;20036;-73
2023/01/21 02:50:55;;;;;;;72.20;39.80;;;0.10;91.60;;;;;;5070881;28;20031;-73
2023/01/21 02:53:26;;;;;;;76.18;40.60;;;0.00;91.50;;;;;;5060318;28;20024;-72
2023/01/21 02:55:53;;;;;;;76.60;41.15;;;0.00;91.60;;;;;;5062287;28;20611;-71
2023/01/21 02:58:25;;;;;;;76.60;40.47;;;0.00;91.60;;;;;;5064339;28;20024;-72
2023/01/21 03:01:22;;;;;;;73.03;39.00;;;0.00;91.60;;;;;;5058602;28;20040;-73
2023/01/21 03:04:12;;;;;;;77.10;42.10;;;0.00;91.50;;;;;;5054374;28;20020;-73
2023/01/21 03:07:05;;;;;;;83.80;43.70;;;0.00;91.40;;;;;;5045288;28;20044;-72
2023/01/21 03:09:32;;;;;;;80.38;40.33;;;0.00;91.40;;;;;;5038405;28;20043;-72
2023/01/21 03:12:07;;;;;;;78.00;39.80;;;-3276.70;91.40;;;;;;5062433;28;20036;-72
2023/01/21 03:17:46;;;;;;;79.22;40.58;;;-3276.70;91.40;;;;;;5065683;28;20035;-72
2023/01/21 03:20:50;;;;;;;79.32;41.58;;;-3276.70;91.40;;;;;;5063439;28;20027;-72
2023/01/21 03:23:22;;;;;;;80.32;43.90;;;0.00;91.50;;;;;;5070340;28;20264;-72
2023/01/21 03:25:49;;;;;;;78.55;39.63;;;-3276.70;91.40;;;;;;5073805;28;20036;-72
2023/01/21 03:28:23;;;;;;;76.07;39.95;;;-3276.70;91.50;;;;;;5071729;28;20028;-73
2023/01/21 03:31:07;;;;;;;78.35;39.67;;;-3276.70;91.40;;;;;;5047815;28;20417;-73
2023/01/21 03:33:36;;;;;;;80.03;39.75;;;-3276.70;91.40;;;;;;5067986;28;20081;-72
2023/01/21 03:36:17;;;;;;;74.82;40.47;;;-3276.70;91.30;;;;;;5064328;28;20105;-72
2023/01/21 03:38:47;;;;;;;70.65;38.38;;;-3276.70;91.30;;;;;;5074315;28;20024;-72
2023/01/21 03:41:18;;;;;;;75.05;41.00;;;-3276.70;91.30;;;;;;5073215;28;20490;-71
2023/01/21 03:43:44;;;;;;;75.45;38.47;;;-3276.70;91.30;;;;;;5077803;28;20039;-71
2023/01/21 03:46:36;;;;;;;77.78;40.75;;;-3276.70;91.20;;;;;;5068071;28;20028;-72
2023/01/21 03:49:04;;;;;;;78.57;39.42;;;-3276.70;91.10;;;;;;5076204;28;20020;-71
2023/01/21 03:51:38;;;;;;;77.82;39.45;;;-3276.70;91.10;;;;;;5068183;28;20032;-72
2023/01/21 03:54:04;;;;;;;75.55;38.17;;;-3276.70;91.10;;;;;;5063726;28;20030;-71
2023/01/21 03:56:30;;;;;;;72.90;39.85;;;-3276.70;91.10;;;;;;5068847;28;20029;-72
2023/01/21 03:58:56;;;;;;;73.38;38.70;;;-3276.60;91.00;;;;;;5066625;28;20127;-73
2023/01/21 04:01:21;;;;;;;77.85;40.22;;;-3276.60;91.00;;;;;;5072079;28;20079;-72
2023/01/21 04:03:47;;;;;;;76.32;40.65;;;-3276.60;91.10;;;;;;5066937;28;20450;-73
2023/01/21 04:06:18;;;;;;;69.38;38.53;;;-3276.70;91.00;;;;;;5066989;28;20416;-73
2023/01/21 04:08:44;;;;;;;69.50;37.70;;;-3276.60;91.00;;;;;;5076512;28;20050;-73
2023/01/21 04:11:10;;;;;;;75.30;41.92;;;-3276.70;91.00;;;;;;5072395;28;20708;-73
2023/01/21 04:13:35;;;;;;;76.28;39.55;;;-3276.70;91.00;;;;;;5074468;28;20067;-73
2023/01/21 04:16:02;;;;;;;72.95;38.55;;;-3276.60;90.90;;;;;;5072787;28;20028;-72
2023/01/21 04:18:28;;;;;;;75.72;40.75;;;-3276.60;90.90;;;;;;5073533;28;20089;-72
2023/01/21 04:20:53;;;;;;;74.13;39.70;;;-3276.60;90.90;;;;;;5057474;28;20241;-72
2023/01/21 04:23:19;;;;;;;81.50;41.38;;;-3276.60;90.90;;;;;;5069372;28;20052;-72
2023/01/21 04:25:47;;;;;;;79.65;40.13;;;-3276.60;90.90;;;;;;5053877;28;20024;-73
2023/01/21 04:28:13;;;;;;;77.80;41.50;;;-3276.60;90.90;;;;;;5073090;28;20024;-73
2023/01/21 04:30:38;;;;;;;75.45;39.67;;;-3276.60;90.90;;;;;;5074080;28;20143;-73
2023/01/21 04:33:04;;;;;;;76.43;39.97;;;-3276.70;90.90;;;;;;5072994;28;20036;-73
2023/01/21 04:35:30;;;;;;;77.80;40.03;;;-3276.60;90.80;;;;;;5073601;28;20458;-73
2023/01/21 04:37:55;;;;;;;73.88;38.60;;;-3276.60;90.80;;;;;;5064641;28;20079;-72
2023/01/21 04:40:21;;;;;;;76.32;39.22;;;-3276.60;90.80;;;;;;5074550;28;20039;-72
2023/01/21 04:42:47;;;;;;;80.35;40.08;;;-3276.60;90.80;;;;;;5043257;28;20144;-72
2023/01/21 04:45:13;;;;;;;76.70;39.55;;;-3276.50;90.80;;;;;;5077356;28;20043;-72
2023/01/21 04:47:42;;;;;;;77.60;41.08;;;-3276.50;90.90;;;;;;5069911;28;20037;-72
2023/01/21 04:50:09;;;;;;;84.30;44.08;;;-3276.50;91.00;;;;;;5078112;28;20036;-72
2023/01/21 04:52:34;;;;;;;79.38;41.40;;;-3276.50;91.00;;;;;;5065932;28;20366;-72
2023/01/21 04:55:00;;;;;;;76.40;43.05;;;-3276.50;90.90;;;;;;5062230;28;20020;-72
2023/01/21 04:57:26;;;;;;;81.88;40.75;;;-3276.50;90.90;;;;;;5062037;28;20071;-72
2023/01/21 04:59:51;;;;;;;80.40;41.35;;;-3276.50;90.90;;;;;;5062978;28;20027;-72
2023/01/21 05:02:17;;;;;;;79.90;40.17;;;-3276.50;90.90;;;;;;5056824;28;20318;-72
2023/01/21 05:04:43;;;;;;;84.57;42.15;;;-3276.50;91.10;;;;;;5076094;28;20076;-72
2023/01/21 05:07:10;;;;;;;83.82;43.05;;;-3276.50;91.00;;;;;;5071403;28;20123;-72
2023/01/21 05:09:36;;;;;;;78.30;41.78;;;-3276.50;91.00;;;;;;5078030;28;20028;-72
2023/01/21 05:12:02;;;;;;;80.22;41.22;;;-3276.40;90.90;;;;;;5070426;28;20042;-72
2023/01/21 05:14:28;;;;;;;78.63;41.40;;;-3276.40;90.90;;;;;;5064816;28;20048;-72
2023/01/21 05:16:53;;;;;;;80.18;43.53;;;-3276.40;91.00;;;;;;5053879;28;20698;-72
2023/01/21 05:19:19;;;;;;;78.05;40.88;;;-3276.30;91.00;;;;;;5065470;28;20063;-72
2023/01/21 05:21:45;;;;;;;85.45;43.08;;;-3276.40;91.10;;;;;;5066720;28;20072;-72
2023/01/21 05:24:11;;;;;;;82.55;44.75;;;-3276.40;91.10;;;;;;5067176;28;20471;-73
2023/01/21 05:26:37;;;;;;;80.13;43.13;;;-3276.30;91.10;;;;;;5046147;28;20536;-72
2023/01/21 05:29:03;;;;;;;84.53;45.72;;;-3276.30;91.20;;;;;;5069670;28;20499;-73
2023/01/21 05:31:28;;;;;;;88.72;45.33;;;-3276.30;91.20;;;;;;5058964;28;20120;-72
2023/01/21 05:33:56;;;;;;;83.30;43.33;;;-3276.30;91.30;;;;;;5057205;28;20334;-72
2023/01/21 05:36:21;;;;;;;86.85;45.60;;;-3276.30;91.30;;;;;;5066462;28;20024;-72
2023/01/21 05:38:47;;;;;;;89.05;45.45;;;-3276.30;91.30;;;;;;5050847;28;20016;-72
2023/01/21 05:41:13;;;;;;;89.10;47.75;;;-3276.30;91.30;;;;;;5068624;28;20095;-72
2023/01/21 05:43:38;;;;;;;85.20;45.03;;;-3276.30;91.30;;;;;;5060262;28;20160;-72
2023/01/21 05:46:04;;;;;;;87.72;47.78;;;-3276.40;91.30;;;;;;5062700;28;20524;-72
2023/01/21 05:48:30;;;;;;;84.68;44.95;;;-3276.30;91.20;;;;;;5046304;28;20024;-72
2023/01/21 05:50:56;;;;;;;89.95;45.70;;;-3276.30;91.20;;;;;;5046052;28;20039;-72
2023/01/21 05:53:22;;;;;;;87.53;45.28;;;-3276.30;91.20;;;;;;5068724;28;20335;-73
2023/01/21 05:55:56;;;;;;;82.57;45.83;;;-3276.30;91.20;;;;;;5047648;28;20131;-72
2023/01/21 05:58:23;;;;;;;79.60;43.40;;;-3276.30;91.10;;;;;;5064597;28;20111;-73
2023/01/21 06:00:49;;;;;;;84.50;45.53;;;-3276.30;91.20;;;;;;5063392;28;20115;-72
2023/01/21 06:03:17;;;;;;;85.10;46.75;;;-3276.20;91.20;;;;;;5065242;28;20096;-73
2023/01/21 06:05:43;;;;;;;92.47;48.58;;;-3276.20;91.20;;;;;;5065784;28;20096;-73
2023/01/21 06:08:10;;;;;;;87.80;47.28;;;-3276.20;91.20;;;;;;5064733;28;20127;-73
2023/01/21 06:10:36;;;;;;;85.85;44.95;;;-3276.20;91.30;;;;;;5062733;28;20460;-72
2023/01/21 06:13:02;;;;;;;89.43;46.08;;;-3276.20;91.40;;;;;;5076848;28;20081;-73
2023/01/21 06:15:28;;;;;;;86.93;46.03;;;-3276.20;91.40;;;;;;5068469;28;20056;-72
2023/01/21 06:17:54;;;;;;;93.47;48.75;;;-3276.20;91.50;;;;;;5042391;28;20033;-72
2023/01/21 06:20:20;;;;;;;94.15;46.22;;;-3276.20;91.50;;;;;;5065265;28;20047;-73
2023/01/21 06:22:45;;;;;;;93.65;48.60;;;-3276.30;91.50;;;;;;5063806;28;20064;-72
2023/01/21 06:25:11;;;;;;;95.05;46.88;;;-3276.20;91.50;;;;;;5046761;28;20024;-73
2023/01/21 06:27:37;;;;;;;93.97;46.08;;;-3276.20;91.50;;;;;;5068292;28;20445;-72
2023/01/21 06:30:07;;;;;;;89.05;46.10;;;-3276.30;91.60;;;;;;5061358;28;20040;-73
2023/01/21 06:32:33;;;;;;;97.28;46.55;;;-3276.30;91.60;;;;;;5064314;28;20040;-72
2023/01/21 06:34:59;;;;;;;95.45;47.00;;;-3276.20;91.50;;;;;;5064093;28;20029;-72
2023/01/21 06:37:25;;;;;;;97.53;47.45;;;-3276.20;91.50;;;;;;5063588;28;20473;-72
2023/01/21 06:39:50;;;;;;;94.88;47.08;;;-3276.20;91.50;;;;;;5072072;28;20044;-72
2023/01/21 06:42:16;;;;;;;96.15;48.22;;;-3276.20;91.70;;;;;;5065158;28;20033;-72
2023/01/21 06:44:43;;;;;;;94.28;45.67;;;-3276.20;91.80;;;;;;5060391;28;20031;-72
2023/01/21 06:47:09;;;;;;;97.75;46.60;;;-3276.30;91.90;;;;;;5067243;28;20112;-72
2023/01/21 06:49:35;;;;;;;101.43;47.70;;;-3276.30;91.90;;;;;;5062642;28;20036;-71
2023/01/21 06:52:00;;;;;;;96.25;46.55;;;-3276.20;91.80;;;;;;5067777;28;20028;-72
2023/01/21 06:54:26;;;;;;;92.40;45.03;;;-3276.30;91.80;;;;;;5062989;28;20025;-72
2023/01/21 06:56:52;;;;;;;95.88;44.83;;;-3276.30;91.80;;;;;;5057441;28;20040;-73
2023/01/21 06:59:18;;;;;;;93.10;43.17;;;-3276.30;91.70;;;;;;5069971;28;20020;-73
2023/01/21 07:01:43;;;;;;;102.05;47.60;;;-3276.30;91.70;;;;;;5065539;28;20388;-72
2023/01/21 07:04:09;;;;;;;95.93;46.80;;;-3276.30;91.70;;;;;;5064713;28;20035;-73
2023/01/21 07:06:35;;;;;;;100.85;45.15;;;-3276.30;91.70;;;;;;5066776;28;20412;-73
2023/01/21 07:09:02;;;;;;;100.90;46.72;;;-3276.20;91.80;;;;;;5070468;28;20028;-72
2023/01/21 07:11:28;;;;;;;99.35;47.72;;;-3276.30;91.80;;;;;;5067979;28;20063;-72
2023/01/21 07:13:54;;;;;;;101.30;49.33;;;-3276.20;91.80;;;;;;5068772;28;20765;-72
2023/01/21 07:16:20;;;;;;;98.63;47.20;;;-3276.20;91.90;;;;;;5060510;28;20045;-73
2023/01/21 07:18:45;;;;;;;109.65;48.70;;;-3276.20;91.90;;;;;;5074603;28;20035;-72
2023/01/21 07:21:11;;;;;;;107.40;47.95;;;-3276.20;92.00;;;;;;5071486;28;20033;-72
2023/01/21 07:23:37;;;;;;;97.63;45.85;;;-3276.20;91.90;;;;;;5070010;28;20056;-72
2023/01/21 07:26:02;;;;;;;95.20;45.28;;;-3276.30;91.90;;;;;;5065298;28;20224;-72
2023/01/21 07:28:28;;;;;;;93.80;43.83;;;-3276.20;91.90;;;;;;5066713;28;20020;-72
2023/01/21 07:30:54;;;;;;;86.22;42.70;;;-3276.30;92.00;;;;;;5060768;28;20589;-72
2023/01/21 07:33:19;;;;;;;93.88;46.20;;;-3276.30;92.00;;;;;;5061237;28;20496;-71
2023/01/21 07:35:45;;;;;;;99.03;47.22;;;-3276.30;91.90;;;;;;5060885;28;20035;-72
2023/01/21 07:38:11;;;;;;;96.15;46.45;;;-3276.30;91.90;;;;;;5068936;28;20078;-72
2023/01/21 07:40:37;;;;;;;100.28;47.13;;;-3276.30;91.90;;;;;;5072492;28;20044;-72
2023/01/21 07:43:03;;;;;;;99.18;47.75;;;-3276.30;91.90;;;;;;5071002;28;20085;-72
2023/01/21 07:45:28;;;;;;;98.15;46.60;;;-3276.30;91.80;;;;;;5073024;28;20298;-71
2023/01/21 07:47:54;;;;;;;94.70;44.55;;;-3276.30;91.90;;;;;;5064449;28;20054;-72
2023/01/21 07:50:20;;;;;;;94.38;44.80;;;-3276.30;91.80;;;;;;5061499;28;20032;-73
2023/01/21 07:52:45;;;;;;;97.90;46.20;;;-3276.30;91.90;;;;;;5075490;28;20361;-71
2023/01/21 07:55:11;;;;;;;99.97;44.85;;;-3276.30;91.80;;;;;;5066568;28;20542;-72
2023/01/21 07:57:37;;;;;;;93.57;47.42;;;-3276.30;91.80;;;;;;5061387;28;20373;-73
2023/01/21 08:00:03;;;;;;;101.43;45.00;;;-3276.30;91.70;;;;;;5065753;28;20123;-74
2023/01/21 08:02:29;;;;;;;96.13;45.90;;;-3276.30;91.80;;;;;;5049597;28;20052;-73
2023/01/21 08:04:54;;;;;;;101.78;48.40;;;-3276.40;91.70;;;;;;5047510;28;20488;-73
2023/01/21 08:07:20;;;;;;;101.15;48.03;;;-3276.40;91.70;;;;;;5057194;28;20524;-73
2023/01/21 08:09:45;;;;;;;98.78;45.08;;;-3276.40;91.70;;;;;;5060265;28;20022;-73
2023/01/21 08:12:11;;;;;;;92.68;44.80;;;-3276.50;91.80;;;;;;5076023;28;20043;-73
2023/01/21 08:14:39;;;;;;;94.22;45.88;;;-3276.50;91.60;;;;;;5069938;28;20078;-72
2023/01/21 08:17:05;;;;;;;90.07;45.80;;;-3276.50;91.50;;;;;;5068104;28;20099;-73
2023/01/21 08:19:31;;;;;;;94.60;45.33;;;-3276.50;91.50;;;;;;5064338;28;20040;-73
2023/01/21 08:21:56;;;;;;;92.68;47.03;;;-3276.50;91.40;;;;;;5044626;28;20045;-73
2023/01/21 08:24:22;;;;;;;88.93;44.55;;;-3276.60;91.40;;;;;;5066897;28;20103;-73
2023/01/21 08:26:48;;;;;;;88.65;46.20;;;-3276.50;91.30;;;;;;5060707;28;20053;-75
2023/01/21 08:29:13;;;;;;;82.93;42.92;;;-3276.60;91.20;;;;;;5057890;28;20090;-75
2023/01/21 08:31:39;;;;;;;88.32;44.80;;;-3276.60;91.20;;;;;;5058975;28;20051;-75
2023/01/21 08:34:05;;;;;;;87.13;43.00;;;-3276.60;91.10;;;;;;5061347;28;20610;-77
2023/01/21 08:36:30;;;;;;;84.97;42.70;;;-3276.60;91.00;;;;;;5058297;28;20036;-76
2023/01/21 08:39:04;;;;;;;92.93;45.80;;;-3276.60;91.00;;;;;;5056485;28;20415;-78
2023/01/21 08:41:30;;;;;;;88.53;41.85;;;-3276.60;91.00;;;;;;5044319;28;20036;-76
2023/01/21 08:43:56;;;;;;;86.22;43.92;;;-3276.70;91.00;;;;;;5064374;28;20045;-76
2023/01/21 08:46:22;;;;;;;87.05;44.53;;;-3276.70;90.90;;;;;;5040715;28;20068;-76
2023/01/21 08:48:47;;;;;;;87.88;45.78;;;0.00;91.00;;;;;;5061714;28;20087;-76
2023/01/21 08:51:13;;;;;;;85.32;45.08;;;0.00;90.90;;;;;;5058950;28;20036;-77
2023/01/21 08:53:39;;;;;;;83.75;42.90;;;0.00;90.80;;;;;;5059345;28;20707;-76
2023/01/21 08:56:05;;;;;;;81.15;43.63;;;0.10;90.90;;;;;;5055900;28;20128;-77
2023/01/21 08:58:31;;;;;;;81.63;43.90;;;0.10;90.60;;;;;;5068797;28;20642;-76
2023/01/21 09:00:57;;;;;;;80.93;43.25;;;0.20;90.40;;;;;;5056578;28;20091;-76
2023/01/21 09:03:23;;;;;;;80.03;40.63;;;0.20;90.10;;;;;;5049585;28;20115;-76
2023/01/21 09:05:52;;;;;;;83.25;42.35;;;0.30;89.80;;;;;;5045589;28;20032;-77
2023/01/21 09:08:18;;;;;;;81.88;42.42;;;0.40;89.80;;;;;;5067818;28;20051;-76
2023/01/21 09:11:02;;;;;;;79.28;42.83;;;0.50;89.50;;;;;;5057726;28;20501;-76
2023/01/21 09:13:36;;;;;;;78.53;43.58;;;0.70;89.40;;;;;;5071814;28;20218;-75
2023/01/21 09:16:06;;;;;;;81.85;43.92;;;0.70;88.90;;;;;;5063207;28;20037;-75
2023/01/21 09:18:31;;;;;;;77.40;40.10;;;0.80;88.70;;;;;;5059025;28;20504;-75
2023/01/21 09:21:01;;;;;;;79.05;43.13;;;0.90;88.50;;;;;;5062232;28;20036;-75
2023/01/21 09:23:27;;;;;;;71.95;40.53;;;1.00;88.10;;;;;;5058593;28;20051;-75
2023/01/21 09:25:55;;;;;;;73.45;39.70;;;1.10;87.80;;;;;;5040307;28;20040;-75
2023/01/21 09:28:21;;;;;;;76.65;42.15;;;1.10;87.50;;;;;;5061486;28;20028;-74
2023/01/21 09:30:47;;;;;;;71.32;37.90;;;1.10;87.40;;;;;;5061982;28;20380;-74
2023/01/21 09:33:14;;;;;;;71.00;39.28;;;1.20;87.20;;;;;;5062609;28;20028;-74
2023/01/21 09:35:40;;;;;;;78.05;43.67;;;1.20;87.00;;;;;;5057662;28;20364;-75
2023/01/21 09:38:06;;;;;;;72.20;42.22;;;1.20;87.00;;;;;;5063116;28;20039;-74
2023/01/21 09:40:33;;;;;;;68.13;39.45;;;1.30;86.80;;;;;;5075457;28;20024;-75
2023/01/21 09:43:08;;;;;;;68.93;37.40;;;1.40;86.70;;;;;;5048884;28;20503;-76
2023/01/21 09:45:34;;;;;;;75.30;39.10;;;1.50;86.60;;;;;;5063391;28;20020;-75
2023/01/21 09:48:02;;;;;;;63.95;37.45;;;1.50;86.30;;;;;;5042719;28;20369;-74
2023/01/21 09:50:30;;;;;;;65.82;37.38;;;1.60;86.30;;;;;;5061873;28;20085;-75
2023/01/21 09:53:05;;;;;;;72.28;40.20;;;1.70;85.90;;;;;;5055389;28;20016;-75
2023/01/21 09:55:39;;;;;;;65.65;37.67;;;1.80;85.80;;;;;;5037441;28;20021;-76
2023/01/21 09:58:23;;;;;;;69.88;38.05;;;1.70;85.30;;;;;;5070481;28;20153;-76
2023/01/21 10:00:59;;;;;;;63.22;37.33;;;1.90;85.60;;;;;;5061416;28;20052;-76
2023/01/21 10:03:52;;;;;;;62.75;36.05;;;1.90;84.70;;;;;;5070001;28;20017;-74
2023/01/21 10:06:39;;;;;;;61.80;36.70;;;2.00;84.70;;;;;;5062998;28;20039;-75
2023/01/21 10:09:15;;;;;;;63.05;37.38;;;2.00;84.20;;;;;;5059072;28;20036;-75
2023/01/21 10:11:59;;;;;;;59.85;35.72;;;2.10;84.40;;;;;;5057811;28;20072;-76
2023/01/21 10:14:39;;;;;;;54.67;33.22;;;2.20;83.70;;;;;;5063871;28;20338;-75
2023/01/21 10:17:20;;;;;;;61.55;36.78;;;2.10;83.20;;;;;;5052662;28;20035;-76
2023/01/21 10:20:04;;;;;;;57.28;33.30;;;2.40;83.20;;;;;;5045057;28;20519;-76
2023/01/21 10:22:30;;;;;;;58.78;34.42;;;2.30;82.60;;;;;;5055078;28;20141;-74
2023/01/21 10:25:14;;;;;;;57.83;34.33;;;2.40;82.60;;;;;;5062489;28;20323;-75
2023/01/21 10:27:43;;;;;;;53.67;31.10;;;2.50;82.20;;;;;;5067285;28;20028;-76
2023/01/21 10:30:41;;;;;;;57.63;32.90;;;2.50;81.90;;;;;;5049533;28;20034;-75
2023/01/21 10:33:15;;;;;;;53.67;31.73;;;2.60;81.50;;;;;;5056267;28;20033;-76
2023/01/21 10:35:47;;;;;;;54.38;32.17;;;2.60;81.20;;;;;;5059337;28;20055;-76
2023/01/21 10:38:38;;;;;;;52.78;30.00;;;2.80;81.50;;;;;;5063686;28;20017;-76
2023/01/21 10:41:17;;;;;;;51.47;30.63;;;2.80;79.60;;;;;;5063276;28;20119;-76
2023/01/21 10:43:48;;;;;;;49.70;30.50;;;2.80;79.60;;;;;;5060059;28;20020;-75
2023/01/21 10:46:22;;;;;;;48.60;30.13;;;2.80;79.30;;;;;;5041506;28;20097;-75
2023/01/21 10:48:56;;;;;;;48.92;29.17;;;2.90;79.00;;;;;;5063727;28;20111;-74
2023/01/21 10:51:25;;;;;;;48.47;28.77;;;3.00;79.50;;;;;;5061147;28;20032;-75
2023/01/21 10:54:02;;;;;;;51.92;30.50;;;3.00;78.80;;;;;;5060467;28;20016;-75
2023/01/21 10:56:50;;;;;;;45.90;28.67;;;3.10;78.80;;;;;;5056029;28;20127;-75
2023/01/21 10:59:26;;;;;;;43.30;25.75;;;3.20;78.70;;;;;;5055145;28;20101;-75
2023/01/21 11:02:14;;;;;;;43.67;27.55;;;3.10;75.90;;;;;;5044470;28;20041;-74
2023/01/21 11:04:41;;;;;;;43.58;27.08;;;3.20;76.80;;;;;;5044523;28;20381;-75
2023/01/21 11:07:11;;;;;;;47.28;27.85;;;3.20;77.10;;;;;;5039738;28;20088;-76
2023/01/21 11:09:41;;;;;;;44.42;28.48;;;3.40;77.90;;;;;;5060841;28;20093;-77
2023/01/21 11:12:12;;;;;;;41.03;27.25;;;3.40;77.40;;;;;;5063171;28;20043;-75
2023/01/21 11:14:38;;;;;;;47.97;28.58;;;3.50;76.20;;;;;;5068796;28;20051;-77
2023/01/21 11:17:04;;;;;;;42.13;26.63;;;3.40;76.80;;;;;;5067710;28;20510;-77
2023/01/21 11:19:30;;;;;;;43.08;26.08;;;3.50;77.10;;;;;;5065953;28;20032;-76
2023/01/21 11:22:16;;;;;;;45.45;27.00;;;3.40;75.90;;;;;;5070666;28;20478;-76
2023/01/21 11:24:45;;;;;;;43.47;26.48;;;3.60;76.60;;;;;;5038962;28;20032;-74
2023/01/21 11:27:19;;;;;;;42.80;26.00;;;3.60;75.90;;;;;;5059546;28;20060;-78
2023/01/21 11:29:46;;;;;;;;;;;3.60;75.30;;;;;;5058503;28;20020;-77
2023/01/21 11:32:19;;;;;;;42.25;25.08;;;3.40;75.20;;;;;;5060258;28;19956;-77
2023/01/21 11:34:46;;;;;;;42.58;26.05;;;3.40;74.80;;;;;;5035694;28;20036;-77
2023/01/21 11:37:24;;;;;;;42.95;26.02;;;3.60;75.70;;;;;;5060129;28;20139;-74
2023/01/21 11:39:54;;;;;;;42.25;26.88;;;3.60;74.90;;;;;;5060610;28;20032;-75
2023/01/21 11:42:20;;;;;;;39.17;23.90;;;3.60;74.80;;;;;;5052534;28;20407;-75
2023/01/21 11:44:50;;;;;;;40.78;25.73;;;3.60;74.00;;;;;;5058888;28;20123;-74
2023/01/21 11:47:34;;;;;;;39.53;24.48;;;3.60;73.80;;;;;;5047540;28;20483;-77
2023/01/21 11:50:33;;;;;;;43.78;25.95;;;3.60;74.30;;;;;;5052282;28;20044;-77
2023/01/21 11:53:14;;;;;;;45.63;26.40;;;3.50;74.80;;;;;;5048273;28;20190;-77
2023/01/21 11:55:50;;;;;;;41.50;26.88;;;3.50;74.70;;;;;;5042091;28;20477;-76
2023/01/21 11:58:39;;;;;;;39.17;24.08;;;3.60;75.70;;;;;;5061377;28;20028;-73
2023/01/21 12:01:07;;;;;;;42.10;26.23;;;3.80;74.70;;;;;;5058186;28;20068;-75
2023/01/21 12:03:47;;;;;;;43.38;26.20;;;3.70;74.40;;;;;;5046949;28;20059;-76
2023/01/21 12:06:25;;;;;;;40.70;26.67;;;3.80;74.80;;;;;;5068622;28;20054;-74
2023/01/21 12:08:55;;;;;;;46.25;28.92;;;4.00;75.00;;;;;;5062210;28;20036;-79
2023/01/21 12:11:26;;;;;;;45.25;28.02;;;4.10;75.50;;;;;;5068176;28;20056;-74
2023/01/21 12:13:57;;;;;;;43.30;26.98;;;4.10;75.30;;;;;;5068140;28;20031;-74
2023/01/21 12:16:36;;;;;;;46.25;27.25;;;4.10;74.10;;;;;;5069115;28;20036;-74
2023/01/21 12:19:15;;;;;;;43.25;28.52;;;4.10;74.90;;;;;;5058170;28;20033;-75
2023/01/21 12:22:18;;;;;;;43.17;26.27;;;4.10;75.50;;;;;;5063119;28;20048;-75
2023/01/21 12:25:21;;;;;;;39.08;25.33;;;4.10;74.50;;;;;;5063567;28;20029;-75
2023/01/21 12:28:05;;;;;;;37.65;23.50;;;4.10;74.70;;;;;;5061579;28;20277;-75
2023/01/21 12:30:52;;;;;;;29.87;19.50;;;4.10;73.10;;;;;;5064871;28;20107;-75
2023/01/21 12:33:30;;;;;;;28.75;19.45;;;3.90;71.30;;;;;;5062994;28;20021;-75
2023/01/21 12:36:18;;;;;;;31.33;20.40;;;3.90;71.20;;;;;;5063176;28;20036;-75
2023/01/21 12:39:04;;;;;;;31.30;18.73;;;4.00;71.10;;;;;;5055112;28;20029;-75